EWGALU EDDS-LEPA
Flight info
| Callsign | EWGALU |
|---|---|
| Flight time | N/A |
| Altitude | 31000 |
| Route | ROTWE5B/25 ROTWE Y126 TUBLO N850 NATOR DCT LUTIX DCT BENOT/N0448F370 DCT NEMOS DCT GEVEA DCT INCUS DCT BALSI DCT RETNO DCT TUPOX DCT MTG/N0451F390 DCT DIVKO DCT VATIR DCT PIVUS DCT BODEQ DCT VERSO L129 LUNIK LUNIK2P |
| Aircraft | A320/M-SDE2E3FGHIJ1RWXY/1000 |
Departure
| Time | 2026-05-05 15:01 |
|---|---|
| Airport | Stuttgart Airport (EDDS) |
Arrival
| Time | N/A |
|---|---|
| Airport | Palma de Mallorca Airport (LEPA) |
| Time | Latitude | Longitude | Altitude | Speed | Heading |
|---|---|---|---|---|---|
| 2026-05-05 14:40 | 48.68915 | 9.19588 | 1288 ft | 0 kts | 342° |
| 2026-05-05 14:49 | 48.68914 | 9.19588 | 1288 ft | 2 kts | 342° |
| 2026-05-05 14:50 | 48.68898 | 9.19596 | 1288 ft | 2 kts | 342° |
| 2026-05-05 14:50 | 48.68882 | 9.19604 | 1288 ft | 2 kts | 342° |
| 2026-05-05 14:50 | 48.68867 | 9.19609 | 1288 ft | 2 kts | 21° |
| 2026-05-05 14:50 | 48.68857 | 9.19599 | 1288 ft | 0 kts | 69° |
| 2026-05-05 14:53 | 48.68864 | 9.19662 | 1288 ft | 12 kts | 82° |
| 2026-05-05 14:53 | 48.68887 | 9.19806 | 1288 ft | 18 kts | 84° |
| 2026-05-05 14:53 | 48.68845 | 9.19889 | 1288 ft | 14 kts | 152° |
| 2026-05-05 14:54 | 48.68845 | 9.20069 | 1288 ft | 32 kts | 74° |
| 2026-05-05 14:54 | 48.68894 | 9.20329 | 1288 ft | 26 kts | 74° |
| 2026-05-05 14:54 | 48.68943 | 9.20582 | 1288 ft | 25 kts | 73° |
| 2026-05-05 14:54 | 48.68985 | 9.20816 | 1288 ft | 21 kts | 74° |
| 2026-05-05 14:55 | 48.69027 | 9.21021 | 1288 ft | 20 kts | 73° |
| 2026-05-05 14:55 | 48.69055 | 9.21175 | 1289 ft | 8 kts | 75° |
| 2026-05-05 14:55 | 48.69072 | 9.21271 | 1288 ft | 15 kts | 72° |
| 2026-05-05 14:55 | 48.69108 | 9.21440 | 1289 ft | 18 kts | 72° |
| 2026-05-05 14:56 | 48.69143 | 9.21623 | 1288 ft | 18 kts | 75° |
| 2026-05-05 14:56 | 48.69178 | 9.21812 | 1288 ft | 19 kts | 74° |
| 2026-05-05 14:56 | 48.69215 | 9.22002 | 1288 ft | 19 kts | 73° |
| 2026-05-05 14:56 | 48.69254 | 9.22201 | 1288 ft | 22 kts | 73° |
| 2026-05-05 14:57 | 48.69302 | 9.22445 | 1288 ft | 25 kts | 75° |
| 2026-05-05 14:57 | 48.69344 | 9.22691 | 1288 ft | 24 kts | 73° |
| 2026-05-05 14:57 | 48.69389 | 9.22935 | 1288 ft | 24 kts | 73° |
| 2026-05-05 14:57 | 48.69438 | 9.23175 | 1288 ft | 24 kts | 72° |
| 2026-05-05 14:58 | 48.69484 | 9.23417 | 1288 ft | 24 kts | 76° |
| 2026-05-05 14:58 | 48.69526 | 9.23661 | 1289 ft | 24 kts | 74° |
| 2026-05-05 14:58 | 48.69573 | 9.23900 | 1288 ft | 24 kts | 74° |
| 2026-05-05 14:58 | 48.69608 | 9.24116 | 1288 ft | 13 kts | 92° |
| 2026-05-05 14:59 | 48.69547 | 9.24290 | 1288 ft | 18 kts | 148° |
| 2026-05-05 14:59 | 48.69494 | 9.24317 | 1288 ft | 0 kts | 162° |
| 2026-05-05 15:00 | 48.69439 | 9.24317 | 1288 ft | 21 kts | 199° |
| 2026-05-05 15:00 | 48.69372 | 9.24217 | 1288 ft | 16 kts | 251° |
| 2026-05-05 15:00 | 48.69358 | 9.24153 | 1289 ft | 29 kts | 252° |
| 2026-05-05 15:00 | 48.69208 | 9.23368 | 1289 ft | 127 kts | 255° |
| 2026-05-05 15:01 | 48.68895 | 9.21745 | 1705 ft | 174 kts | 253° |
| 2026-05-05 15:01 | 48.68557 | 9.19975 | 2772 ft | 181 kts | 255° |
| 2026-05-05 15:01 | 48.68187 | 9.17936 | 3319 ft | 223 kts | 254° |
| 2026-05-05 15:01 | 48.67742 | 9.15534 | 4056 ft | 249 kts | 253° |
| 2026-05-05 15:02 | 48.67257 | 9.12965 | 4668 ft | 256 kts | 252° |
| 2026-05-05 15:02 | 48.66765 | 9.10379 | 4925 ft | 255 kts | 252° |
| 2026-05-05 15:02 | 48.66270 | 9.07800 | 4966 ft | 256 kts | 252° |
| 2026-05-05 15:02 | 48.65771 | 9.05209 | 4971 ft | 257 kts | 252° |
| 2026-05-05 15:03 | 48.65272 | 9.02620 | 4998 ft | 257 kts | 252° |
| 2026-05-05 15:03 | 48.64762 | 8.99984 | 5555 ft | 266 kts | 252° |
| 2026-05-05 15:03 | 48.64237 | 8.97275 | 6810 ft | 266 kts | 251° |
| 2026-05-05 15:03 | 48.63723 | 8.94619 | 8324 ft | 261 kts | 251° |
| 2026-05-05 15:04 | 48.63210 | 8.91976 | 9640 ft | 263 kts | 251° |
| 2026-05-05 15:04 | 48.62685 | 8.89281 | 10599 ft | 275 kts | 251° |